sensor_id;sensor_type;location;lat;lon;timestamp;temperature;humidity
22192;DHT22;11261;52.456;10.850;2022-10-16T00:01:13;16.10;99.90
22192;DHT22;11261;52.456;10.850;2022-10-16T00:03:42;16.00;99.90
22192;DHT22;11261;52.456;10.850;2022-10-16T00:06:11;16.10;99.90
22192;DHT22;11261;52.456;10.850;2022-10-16T00:08:40;16.00;99.90
22192;DHT22;11261;52.456;10.850;2022-10-16T00:11:10;16.00;99.90
22192;DHT22;11261;52.456;10.850;2022-10-16T00:13:41;15.90;99.90
22192;DHT22;11261;52.456;10.850;2022-10-16T00:16:11;15.90;99.90
22192;DHT22;11261;52.456;10.850;2022-10-16T00:18:41;15.90;99.90
22192;DHT22;11261;52.456;10.850;2022-10-16T00:21:10;15.90;99.90
22192;DHT22;11261;52.456;10.850;2022-10-16T00:23:39;15.90;99.90
22192;DHT22;11261;52.456;10.850;2022-10-16T00:26:09;15.80;99.90
22192;DHT22;11261;52.456;10.850;2022-10-16T00:28:37;15.80;99.90
22192;DHT22;11261;52.456;10.850;2022-10-16T00:31:07;15.70;99.90
22192;DHT22;11261;52.456;10.850;2022-10-16T00:33:37;15.70;99.90
22192;DHT22;11261;52.456;10.850;2022-10-16T00:36:09;15.70;99.90
22192;DHT22;11261;52.456;10.850;2022-10-16T00:38:38;15.70;99.90
22192;DHT22;11261;52.456;10.850;2022-10-16T00:41:07;15.60;99.90
22192;DHT22;11261;52.456;10.850;2022-10-16T00:43:39;15.40;99.90
22192;DHT22;11261;52.456;10.850;2022-10-16T00:46:13;15.40;99.90
22192;DHT22;11261;52.456;10.850;2022-10-16T00:48:47;15.40;99.90
22192;DHT22;11261;52.456;10.850;2022-10-16T00:51:18;15.40;99.90
22192;DHT22;11261;52.456;10.850;2022-10-16T00:53:47;15.30;99.90
22192;DHT22;11261;52.456;10.850;2022-10-16T00:56:16;15.20;99.90
22192;DHT22;11261;52.456;10.850;2022-10-16T00:58:44;15.20;99.90
22192;DHT22;11261;52.456;10.850;2022-10-16T01:01:12;15.20;99.90
22192;DHT22;11261;52.456;10.850;2022-10-16T01:03:41;15.10;99.90
22192;DHT22;11261;52.456;10.850;2022-10-16T01:06:21;15.10;99.90
22192;DHT22;11261;52.456;10.850;2022-10-16T01:09:11;15.00;99.90
22192;DHT22;11261;52.456;10.850;2022-10-16T01:11:45;15.00;99.90
22192;DHT22;11261;52.456;10.850;2022-10-16T01:14:22;15.00;99.90
22192;DHT22;11261;52.456;10.850;2022-10-16T01:16:58;14.80;99.90
22192;DHT22;11261;52.456;10.850;2022-10-16T01:19:44;14.80;99.90
22192;DHT22;11261;52.456;10.850;2022-10-16T01:22:20;14.80;99.90
22192;DHT22;11261;52.456;10.850;2022-10-16T01:24:50;14.80;99.90
22192;DHT22;11261;52.456;10.850;2022-10-16T01:27:21;14.80;99.90
22192;DHT22;11261;52.456;10.850;2022-10-16T01:29:54;14.80;99.90
22192;DHT22;11261;52.456;10.850;2022-10-16T01:32:28;14.80;99.90
22192;DHT22;11261;52.456;10.850;2022-10-16T01:35:02;14.80;99.90
22192;DHT22;11261;52.456;10.850;2022-10-16T01:37:36;14.80;99.90
22192;DHT22;11261;52.456;10.850;2022-10-16T01:40:10;14.80;99.90
22192;DHT22;11261;52.456;10.850;2022-10-16T01:42:42;14.70;99.90
22192;DHT22;11261;52.456;10.850;2022-10-16T01:45:15;14.80;99.90
22192;DHT22;11261;52.456;10.850;2022-10-16T01:47:46;14.70;99.90
22192;DHT22;11261;52.456;10.850;2022-10-16T01:50:18;14.70;99.90
22192;DHT22;11261;52.456;10.850;2022-10-16T01:52:49;14.70;99.90
22192;DHT22;11261;52.456;10.850;2022-10-16T01:55:24;14.60;99.90
22192;DHT22;11261;52.456;10.850;2022-10-16T01:57:55;14.60;99.90
22192;DHT22;11261;52.456;10.850;2022-10-16T02:00:25;14.60;99.90
22192;DHT22;11261;52.456;10.850;2022-10-16T02:02:55;14.60;99.90
22192;DHT22;11261;52.456;10.850;2022-10-16T02:05:28;14.50;99.90
22192;DHT22;11261;52.456;10.850;2022-10-16T02:07:57;14.50;99.90
22192;DHT22;11261;52.456;10.850;2022-10-16T02:10:31;14.50;99.90
22192;DHT22;11261;52.456;10.850;2022-10-16T02:13:04;14.50;99.90
22192;DHT22;11261;52.456;10.850;2022-10-16T02:15:33;14.50;99.90
22192;DHT22;11261;52.456;10.850;2022-10-16T02:18:02;14.50;99.90
22192;DHT22;11261;52.456;10.850;2022-10-16T02:20:36;14.50;99.90
22192;DHT22;11261;52.456;10.850;2022-10-16T02:23:04;14.50;99.90
22192;DHT22;11261;52.456;10.850;2022-10-16T02:25:37;14.50;99.90
22192;DHT22;11261;52.456;10.850;2022-10-16T02:28:15;14.40;99.90
22192;DHT22;11261;52.456;10.850;2022-10-16T02:30:46;14.40;99.90
22192;DHT22;11261;52.456;10.850;2022-10-16T02:33:17;14.40;99.90
22192;DHT22;11261;52.456;10.850;2022-10-16T02:35:48;14.40;99.90
22192;DHT22;11261;52.456;10.850;2022-10-16T02:38:18;14.40;99.90
22192;DHT22;11261;52.456;10.850;2022-10-16T02:40:47;14.50;99.90
22192;DHT22;11261;52.456;10.850;2022-10-16T02:43:17;14.50;99.90
22192;DHT22;11261;52.456;10.850;2022-10-16T02:45:45;14.60;99.90
22192;DHT22;11261;52.456;10.850;2022-10-16T02:48:13;14.60;99.90
22192;DHT22;11261;52.456;10.850;2022-10-16T02:50:41;14.50;99.90
22192;DHT22;11261;52.456;10.850;2022-10-16T02:53:09;14.60;99.90
22192;DHT22;11261;52.456;10.850;2022-10-16T02:55:38;14.60;99.90
22192;DHT22;11261;52.456;10.850;2022-10-16T02:58:06;14.60;99.90
22192;DHT22;11261;52.456;10.850;2022-10-16T03:00:36;14.60;99.90
22192;DHT22;11261;52.456;10.850;2022-10-16T03:03:04;14.60;99.90
22192;DHT22;11261;52.456;10.850;2022-10-16T03:05:32;14.50;99.90
22192;DHT22;11261;52.456;10.850;2022-10-16T03:08:00;14.60;99.90
22192;DHT22;11261;52.456;10.850;2022-10-16T03:10:28;14.60;99.90
22192;DHT22;11261;52.456;10.850;2022-10-16T03:12:57;14.50;99.90
22192;DHT22;11261;52.456;10.850;2022-10-16T03:15:25;14.60;99.90
22192;DHT22;11261;52.456;10.850;2022-10-16T03:17:57;14.60;99.90
22192;DHT22;11261;52.456;10.850;2022-10-16T03:20:26;14.60;99.90
22192;DHT22;11261;52.456;10.850;2022-10-16T03:22:54;14.50;99.90
22192;DHT22;11261;52.456;10.850;2022-10-16T03:25:22;14.50;99.90
22192;DHT22;11261;52.456;10.850;2022-10-16T03:27:51;14.40;99.90
22192;DHT22;11261;52.456;10.850;2022-10-16T03:30:19;14.40;99.90
22192;DHT22;11261;52.456;10.850;2022-10-16T03:32:47;14.40;99.90
22192;DHT22;11261;52.456;10.850;2022-10-16T03:35:16;14.50;99.90
22192;DHT22;11261;52.456;10.850;2022-10-16T03:37:44;14.40;99.90
22192;DHT22;11261;52.456;10.850;2022-10-16T03:40:12;14.40;99.90
22192;DHT22;11261;52.456;10.850;2022-10-16T03:42:42;14.40;99.90
22192;DHT22;11261;52.456;10.850;2022-10-16T03:45:11;14.40;99.90
22192;DHT22;11261;52.456;10.850;2022-10-16T03:47:39;14.40;99.90
22192;DHT22;11261;52.456;10.850;2022-10-16T03:50:07;14.40;99.90
22192;DHT22;11261;52.456;10.850;2022-10-16T03:52:37;14.40;99.90
22192;DHT22;11261;52.456;10.850;2022-10-16T03:55:06;14.30;99.90
22192;DHT22;11261;52.456;10.850;2022-10-16T03:57:35;14.30;99.90
22192;DHT22;11261;52.456;10.850;2022-10-16T04:00:03;14.20;99.90
22192;DHT22;11261;52.456;10.850;2022-10-16T04:02:31;14.20;99.90
22192;DHT22;11261;52.456;10.850;2022-10-16T04:05:00;14.20;99.90
22192;DHT22;11261;52.456;10.850;2022-10-16T04:07:28;14.20;99.90
22192;DHT22;11261;52.456;10.850;2022-10-16T04:09:58;14.10;99.90
22192;DHT22;11261;52.456;10.850;2022-10-16T04:12:27;14.00;99.90
22192;DHT22;11261;52.456;10.850;2022-10-16T04:14:55;14.00;99.90
22192;DHT22;11261;52.456;10.850;2022-10-16T04:17:23;13.90;99.90
22192;DHT22;11261;52.456;10.850;2022-10-16T04:19:52;14.00;99.90
22192;DHT22;11261;52.456;10.850;2022-10-16T04:22:21;14.00;99.90
22192;DHT22;11261;52.456;10.850;2022-10-16T04:24:49;14.00;99.90
22192;DHT22;11261;52.456;10.850;2022-10-16T04:27:19;14.00;99.90
22192;DHT22;11261;52.456;10.850;2022-10-16T04:29:47;13.90;99.90
22192;DHT22;11261;52.456;10.850;2022-10-16T04:32:15;14.00;99.90
22192;DHT22;11261;52.456;10.850;2022-10-16T04:34:43;13.90;99.90
22192;DHT22;11261;52.456;10.850;2022-10-16T04:37:12;13.90;99.90
22192;DHT22;11261;52.456;10.850;2022-10-16T04:39:40;13.90;99.90
22192;DHT22;11261;52.456;10.850;2022-10-16T04:42:08;13.90;99.90
22192;DHT22;11261;52.456;10.850;2022-10-16T04:44:37;13.70;99.90
22192;DHT22;11261;52.456;10.850;2022-10-16T04:47:06;13.70;99.90
22192;DHT22;11261;52.456;10.850;2022-10-16T04:49:34;13.70;99.90
22192;DHT22;11261;52.456;10.850;2022-10-16T04:52:02;13.60;99.90
22192;DHT22;11261;52.456;10.850;2022-10-16T04:54:30;13.60;99.90
22192;DHT22;11261;52.456;10.850;2022-10-16T04:56:58;13.60;99.90
22192;DHT22;11261;52.456;10.850;2022-10-16T04:59:26;13.50;99.90
22192;DHT22;11261;52.456;10.850;2022-10-16T05:01:56;13.50;99.90
22192;DHT22;11261;52.456;10.850;2022-10-16T05:04:24;13.50;99.90
22192;DHT22;11261;52.456;10.850;2022-10-16T05:06:52;13.50;99.90
22192;DHT22;11261;52.456;10.850;2022-10-16T05:09:20;13.50;99.90
22192;DHT22;11261;52.456;10.850;2022-10-16T05:11:48;13.50;99.90
22192;DHT22;11261;52.456;10.850;2022-10-16T05:14:16;13.40;99.90
22192;DHT22;11261;52.456;10.850;2022-10-16T05:16:44;13.40;99.90
22192;DHT22;11261;52.456;10.850;2022-10-16T05:19:16;13.40;99.90
22192;DHT22;11261;52.456;10.850;2022-10-16T05:21:59;13.40;99.90
22192;DHT22;11261;52.456;10.850;2022-10-16T05:24:27;13.40;99.90
22192;DHT22;11261;52.456;10.850;2022-10-16T05:26:55;13.40;99.90
22192;DHT22;11261;52.456;10.850;2022-10-16T05:29:24;13.20;99.90
22192;DHT22;11261;52.456;10.850;2022-10-16T05:31:52;13.20;99.90
22192;DHT22;11261;52.456;10.850;2022-10-16T05:34:22;13.20;99.90
22192;DHT22;11261;52.456;10.850;2022-10-16T05:36:51;13.20;99.90
22192;DHT22;11261;52.456;10.850;2022-10-16T05:39:19;13.10;99.90
22192;DHT22;11261;52.456;10.850;2022-10-16T05:41:49;13.10;99.90
22192;DHT22;11261;52.456;10.850;2022-10-16T05:44:17;13.20;99.90
22192;DHT22;11261;52.456;10.850;2022-10-16T05:46:46;13.20;99.90
22192;DHT22;11261;52.456;10.850;2022-10-16T05:49:14;13.20;99.90
22192;DHT22;11261;52.456;10.850;2022-10-16T05:51:44;13.10;99.90
22192;DHT22;11261;52.456;10.850;2022-10-16T05:54:13;13.20;99.90
22192;DHT22;11261;52.456;10.850;2022-10-16T05:56:41;13.10;99.90
22192;DHT22;11261;52.456;10.850;2022-10-16T05:59:09;13.00;99.90
22192;DHT22;11261;52.456;10.850;2022-10-16T06:01:37;13.10;99.90
22192;DHT22;11261;52.456;10.850;2022-10-16T06:04:05;13.10;99.90
22192;DHT22;11261;52.456;10.850;2022-10-16T06:06:33;13.10;99.90
22192;DHT22;11261;52.456;10.850;2022-10-16T06:09:04;13.10;99.90
22192;DHT22;11261;52.456;10.850;2022-10-16T06:11:33;13.20;99.90
22192;DHT22;11261;52.456;10.850;2022-10-16T06:14:01;13.20;99.90
22192;DHT22;11261;52.456;10.850;2022-10-16T06:16:34;13.10;99.90
22192;DHT22;11261;52.456;10.850;2022-10-16T06:19:03;13.20;99.90
22192;DHT22;11261;52.456;10.850;2022-10-16T06:21:33;13.20;99.90
22192;DHT22;11261;52.456;10.850;2022-10-16T06:24:01;13.20;99.90
22192;DHT22;11261;52.456;10.850;2022-10-16T06:26:31;13.20;99.90
22192;DHT22;11261;52.456;10.850;2022-10-16T06:28:59;13.10;99.90
22192;DHT22;11261;52.456;10.850;2022-10-16T06:31:28;13.20;99.90
22192;DHT22;11261;52.456;10.850;2022-10-16T06:33:58;13.20;99.90
22192;DHT22;11261;52.456;10.850;2022-10-16T06:36:26;13.20;99.90
22192;DHT22;11261;52.456;10.850;2022-10-16T06:38:54;13.20;99.90
22192;DHT22;11261;52.456;10.850;2022-10-16T06:41:23;13.30;99.90
22192;DHT22;11261;52.456;10.850;2022-10-16T06:43:52;13.40;99.90
22192;DHT22;11261;52.456;10.850;2022-10-16T06:46:22;13.50;99.90
22192;DHT22;11261;52.456;10.850;2022-10-16T06:48:50;13.70;99.90
22192;DHT22;11261;52.456;10.850;2022-10-16T06:51:20;13.60;99.90
22192;DHT22;11261;52.456;10.850;2022-10-16T06:53:49;13.70;99.90
22192;DHT22;11261;52.456;10.850;2022-10-16T06:56:34;13.70;99.90
22192;DHT22;11261;52.456;10.850;2022-10-16T06:59:04;14.10;99.90
22192;DHT22;11261;52.456;10.850;2022-10-16T07:01:32;14.30;99.90
22192;DHT22;11261;52.456;10.850;2022-10-16T07:04:00;14.10;99.90
22192;DHT22;11261;52.456;10.850;2022-10-16T07:06:32;14.20;99.90
22192;DHT22;11261;52.456;10.850;2022-10-16T07:09:03;14.50;99.90
22192;DHT22;11261;52.456;10.850;2022-10-16T07:11:32;14.80;99.90
22192;DHT22;11261;52.456;10.850;2022-10-16T07:14:00;15.20;99.90
22192;DHT22;11261;52.456;10.850;2022-10-16T07:16:31;15.10;99.90
22192;DHT22;11261;52.456;10.850;2022-10-16T07:19:00;15.30;99.90
22192;DHT22;11261;52.456;10.850;2022-10-16T07:21:31;16.00;99.90
22192;DHT22;11261;52.456;10.850;2022-10-16T07:24:04;16.50;99.90
22192;DHT22;11261;52.456;10.850;2022-10-16T07:26:34;16.80;99.90
22192;DHT22;11261;52.456;10.850;2022-10-16T07:29:02;16.80;99.90
22192;DHT22;11261;52.456;10.850;2022-10-16T07:31:32;17.40;99.90
22192;DHT22;11261;52.456;10.850;2022-10-16T07:34:00;17.70;99.90
22192;DHT22;11261;52.456;10.850;2022-10-16T07:36:28;17.70;99.90
22192;DHT22;11261;52.456;10.850;2022-10-16T07:38:57;18.10;99.90
22192;DHT22;11261;52.456;10.850;2022-10-16T07:41:26;17.80;99.90
22192;DHT22;11261;52.456;10.850;2022-10-16T07:43:55;18.20;99.90
22192;DHT22;11261;52.456;10.850;2022-10-16T07:46:27;19.00;99.90
22192;DHT22;11261;52.456;10.850;2022-10-16T07:48:57;18.90;99.90
22192;DHT22;11261;52.456;10.850;2022-10-16T07:51:26;19.00;99.90
22192;DHT22;11261;52.456;10.850;2022-10-16T07:53:54;19.50;99.90
22192;DHT22;11261;52.456;10.850;2022-10-16T07:56:23;18.60;99.90
22192;DHT22;11261;52.456;10.850;2022-10-16T07:58:52;18.10;99.90
22192;DHT22;11261;52.456;10.850;2022-10-16T08:01:20;18.30;99.90
22192;DHT22;11261;52.456;10.850;2022-10-16T08:03:50;18.60;99.90
22192;DHT22;11261;52.456;10.850;2022-10-16T08:06:21;19.70;99.90
22192;DHT22;11261;52.456;10.850;2022-10-16T08:08:54;18.90;99.90
22192;DHT22;11261;52.456;10.850;2022-10-16T08:11:23;18.60;99.90
22192;DHT22;11261;52.456;10.850;2022-10-16T08:13:51;18.70;99.90
22192;DHT22;11261;52.456;10.850;2022-10-16T08:16:19;19.10;99.90
22192;DHT22;11261;52.456;10.850;2022-10-16T08:18:47;18.90;99.90
22192;DHT22;11261;52.456;10.850;2022-10-16T08:21:17;19.30;99.90
22192;DHT22;11261;52.456;10.850;2022-10-16T08:23:48;19.60;99.90
22192;DHT22;11261;52.456;10.850;2022-10-16T08:26:24;19.90;99.90
22192;DHT22;11261;52.456;10.850;2022-10-16T08:28:52;19.60;99.90
22192;DHT22;11261;52.456;10.850;2022-10-16T08:31:21;19.60;99.90
22192;DHT22;11261;52.456;10.850;2022-10-16T08:33:49;19.10;99.90
22192;DHT22;11261;52.456;10.850;2022-10-16T08:36:18;19.10;99.90
22192;DHT22;11261;52.456;10.850;2022-10-16T08:38:49;19.50;99.90
22192;DHT22;11261;52.456;10.850;2022-10-16T08:41:31;19.80;99.90
22192;DHT22;11261;52.456;10.850;2022-10-16T08:44:23;20.00;99.90
22192;DHT22;11261;52.456;10.850;2022-10-16T08:47:02;20.30;99.90
22192;DHT22;11261;52.456;10.850;2022-10-16T08:49:32;19.60;99.90
22192;DHT22;11261;52.456;10.850;2022-10-16T08:52:00;19.70;99.90
22192;DHT22;11261;52.456;10.850;2022-10-16T08:54:33;20.30;99.90
22192;DHT22;11261;52.456;10.850;2022-10-16T08:57:09;19.70;99.90
22192;DHT22;11261;52.456;10.850;2022-10-16T08:59:39;19.80;99.90
22192;DHT22;11261;52.456;10.850;2022-10-16T09:02:23;19.30;99.90
22192;DHT22;11261;52.456;10.850;2022-10-16T09:05:21;18.80;99.90
22192;DHT22;11261;52.456;10.850;2022-10-16T09:08:01;19.30;99.90
22192;DHT22;11261;52.456;10.850;2022-10-16T09:10:46;19.80;99.90
22192;DHT22;11261;52.456;10.850;2022-10-16T09:13:23;20.30;99.90
22192;DHT22;11261;52.456;10.850;2022-10-16T09:16:01;20.00;99.90
22192;DHT22;11261;52.456;10.850;2022-10-16T09:18:39;20.00;99.90
22192;DHT22;11261;52.456;10.850;2022-10-16T09:21:14;20.40;99.90
22192;DHT22;11261;52.456;10.850;2022-10-16T09:23:43;20.70;99.90
22192;DHT22;11261;52.456;10.850;2022-10-16T09:26:14;21.70;99.90
22192;DHT22;11261;52.456;10.850;2022-10-16T09:28:45;21.00;99.90
22192;DHT22;11261;52.456;10.850;2022-10-16T09:31:17;20.90;99.90
22192;DHT22;11261;52.456;10.850;2022-10-16T09:33:51;21.20;99.90
22192;DHT22;11261;52.456;10.850;2022-10-16T09:36:20;20.50;99.90
22192;DHT22;11261;52.456;10.850;2022-10-16T09:38:49;20.40;99.90
22192;DHT22;11261;52.456;10.850;2022-10-16T09:41:22;20.00;99.90
22192;DHT22;11261;52.456;10.850;2022-10-16T09:43:54;19.90;99.90
22192;DHT22;11261;52.456;10.850;2022-10-16T09:46:28;20.00;99.90
22192;DHT22;11261;52.456;10.850;2022-10-16T09:48:58;20.40;99.90
22192;DHT22;11261;52.456;10.850;2022-10-16T09:51:29;21.10;99.90
22192;DHT22;11261;52.456;10.850;2022-10-16T09:53:59;20.80;99.90
22192;DHT22;11261;52.456;10.850;2022-10-16T09:56:31;20.90;99.90
22192;DHT22;11261;52.456;10.850;2022-10-16T09:59:02;21.50;99.90
22192;DHT22;11261;52.456;10.850;2022-10-16T10:01:36;21.40;99.90
22192;DHT22;11261;52.456;10.850;2022-10-16T10:04:06;22.00;99.90
22192;DHT22;11261;52.456;10.850;2022-10-16T10:06:36;21.80;99.90
22192;DHT22;11261;52.456;10.850;2022-10-16T10:09:14;21.90;99.90
22192;DHT22;11261;52.456;10.850;2022-10-16T10:11:50;21.50;99.90
22192;DHT22;11261;52.456;10.850;2022-10-16T10:14:29;21.50;99.90
22192;DHT22;11261;52.456;10.850;2022-10-16T10:17:16;21.70;99.90
22192;DHT22;11261;52.456;10.850;2022-10-16T10:19:48;21.90;99.90
22192;DHT22;11261;52.456;10.850;2022-10-16T10:22:25;21.90;99.90
22192;DHT22;11261;52.456;10.850;2022-10-16T10:25:12;22.10;99.90
22192;DHT22;11261;52.456;10.850;2022-10-16T10:27:52;21.60;99.90
22192;DHT22;11261;52.456;10.850;2022-10-16T10:30:27;21.60;99.90
22192;DHT22;11261;52.456;10.850;2022-10-16T10:33:17;21.80;99.90
22192;DHT22;11261;52.456;10.850;2022-10-16T10:35:53;22.10;99.90
22192;DHT22;11261;52.456;10.850;2022-10-16T10:38:34;22.20;99.90
22192;DHT22;11261;52.456;10.850;2022-10-16T10:41:28;22.20;99.90
22192;DHT22;11261;52.456;10.850;2022-10-16T10:44:11;21.90;99.90
22192;DHT22;11261;52.456;10.850;2022-10-16T10:46:51;22.30;99.90
22192;DHT22;11261;52.456;10.850;2022-10-16T10:49:37;22.60;99.90
22192;DHT22;11261;52.456;10.850;2022-10-16T10:52:27;22.50;99.90
22192;DHT22;11261;52.456;10.850;2022-10-16T10:55:02;22.50;99.90
22192;DHT22;11261;52.456;10.850;2022-10-16T10:57:41;22.60;99.90
22192;DHT22;11261;52.456;10.850;2022-10-16T11:00:20;22.40;99.90
22192;DHT22;11261;52.456;10.850;2022-10-16T11:02:56;22.50;99.90
22192;DHT22;11261;52.456;10.850;2022-10-16T11:05:36;23.00;99.90
22192;DHT22;11261;52.456;10.850;2022-10-16T11:08:11;22.90;99.90
22192;DHT22;11261;52.456;10.850;2022-10-16T11:10:45;22.90;99.90
22192;DHT22;11261;52.456;10.850;2022-10-16T11:13:22;22.20;99.90
22192;DHT22;11261;52.456;10.850;2022-10-16T11:15:55;22.60;99.90
22192;DHT22;11261;52.456;10.850;2022-10-16T11:18:29;22.80;99.90
22192;DHT22;11261;52.456;10.850;2022-10-16T11:21:04;23.20;99.90
22192;DHT22;11261;52.456;10.850;2022-10-16T11:23:38;22.50;99.90
22192;DHT22;11261;52.456;10.850;2022-10-16T11:26:13;22.70;99.90
22192;DHT22;11261;52.456;10.850;2022-10-16T11:28:45;22.80;99.90
22192;DHT22;11261;52.456;10.850;2022-10-16T11:31:19;22.40;99.90
22192;DHT22;11261;52.456;10.850;2022-10-16T11:33:55;22.40;99.90
22192;DHT22;11261;52.456;10.850;2022-10-16T11:36:29;22.40;99.90
22192;DHT22;11261;52.456;10.850;2022-10-16T11:39:02;22.40;99.90
22192;DHT22;11261;52.456;10.850;2022-10-16T11:41:35;21.90;99.90
22192;DHT22;11261;52.456;10.850;2022-10-16T11:44:32;22.30;99.90
22192;DHT22;11261;52.456;10.850;2022-10-16T11:47:11;22.40;99.90
22192;DHT22;11261;52.456;10.850;2022-10-16T11:50:03;22.60;99.90
22192;DHT22;11261;52.456;10.850;2022-10-16T11:52:38;22.30;99.90
22192;DHT22;11261;52.456;10.850;2022-10-16T11:55:14;22.60;99.90
22192;DHT22;11261;52.456;10.850;2022-10-16T11:57:46;22.10;99.90
22192;DHT22;11261;52.456;10.850;2022-10-16T12:00:21;21.40;99.90
22192;DHT22;11261;52.456;10.850;2022-10-16T12:03:00;21.20;99.90
22192;DHT22;11261;52.456;10.850;2022-10-16T12:05:39;21.70;99.90
22192;DHT22;11261;52.456;10.850;2022-10-16T12:08:15;21.60;99.90
22192;DHT22;11261;52.456;10.850;2022-10-16T12:10:46;21.10;99.90
22192;DHT22;11261;52.456;10.850;2022-10-16T12:13:31;21.50;99.90
22192;DHT22;11261;52.456;10.850;2022-10-16T12:16:23;21.50;99.90
22192;DHT22;11261;52.456;10.850;2022-10-16T12:19:11;21.50;99.90
22192;DHT22;11261;52.456;10.850;2022-10-16T12:21:41;21.70;99.90
22192;DHT22;11261;52.456;10.850;2022-10-16T12:24:22;21.60;99.90
22192;DHT22;11261;52.456;10.850;2022-10-16T12:26:54;21.70;99.90
22192;DHT22;11261;52.456;10.850;2022-10-16T12:29:30;21.90;99.90
22192;DHT22;11261;52.456;10.850;2022-10-16T12:31:59;21.70;99.90
22192;DHT22;11261;52.456;10.850;2022-10-16T12:34:35;21.80;99.90
22192;DHT22;11261;52.456;10.850;2022-10-16T12:37:12;22.30;99.90
22192;DHT22;11261;52.456;10.850;2022-10-16T12:39:41;22.20;99.90
22192;DHT22;11261;52.456;10.850;2022-10-16T12:42:30;22.30;99.90
22192;DHT22;11261;52.456;10.850;2022-10-16T12:45:00;21.90;99.90
22192;DHT22;11261;52.456;10.850;2022-10-16T12:47:48;21.70;99.90
22192;DHT22;11261;52.456;10.850;2022-10-16T12:50:33;21.70;99.90
22192;DHT22;11261;52.456;10.850;2022-10-16T12:53:03;22.20;99.90
22192;DHT22;11261;52.456;10.850;2022-10-16T12:55:41;22.00;99.90
22192;DHT22;11261;52.456;10.850;2022-10-16T12:58:32;21.90;99.90
22192;DHT22;11261;52.456;10.850;2022-10-16T13:01:09;22.00;99.90
22192;DHT22;11261;52.456;10.850;2022-10-16T13:04:03;22.20;99.90
22192;DHT22;11261;52.456;10.850;2022-10-16T13:06:39;22.40;99.90
22192;DHT22;11261;52.456;10.850;2022-10-16T13:09:33;22.40;99.90
22192;DHT22;11261;52.456;10.850;2022-10-16T13:12:16;22.10;99.90
22192;DHT22;11261;52.456;10.850;2022-10-16T13:15:05;22.10;99.90
22192;DHT22;11261;52.456;10.850;2022-10-16T13:17:40;21.80;99.90
22192;DHT22;11261;52.456;10.850;2022-10-16T13:20:16;22.30;99.90
22192;DHT22;11261;52.456;10.850;2022-10-16T13:22:54;21.90;99.90
22192;DHT22;11261;52.456;10.850;2022-10-16T13:25:31;22.30;99.90
22192;DHT22;11261;52.456;10.850;2022-10-16T13:28:02;22.00;99.90
22192;DHT22;11261;52.456;10.850;2022-10-16T13:30:34;22.10;99.90
22192;DHT22;11261;52.456;10.850;2022-10-16T13:33:07;22.50;99.90
22192;DHT22;11261;52.456;10.850;2022-10-16T13:35:47;22.40;99.90
22192;DHT22;11261;52.456;10.850;2022-10-16T13:38:19;22.30;99.90
22192;DHT22;11261;52.456;10.850;2022-10-16T13:40:49;22.10;99.90
22192;DHT22;11261;52.456;10.850;2022-10-16T13:43:19;21.50;99.90
22192;DHT22;11261;52.456;10.850;2022-10-16T13:45:59;21.60;99.90
22192;DHT22;11261;52.456;10.850;2022-10-16T13:48:30;21.50;99.90
22192;DHT22;11261;52.456;10.850;2022-10-16T13:50:59;21.40;99.90
22192;DHT22;11261;52.456;10.850;2022-10-16T13:53:30;21.20;99.90
22192;DHT22;11261;52.456;10.850;2022-10-16T13:55:59;21.50;99.90
22192;DHT22;11261;52.456;10.850;2022-10-16T13:58:28;21.40;99.90
22192;DHT22;11261;52.456;10.850;2022-10-16T14:00:57;21.60;99.90
22192;DHT22;11261;52.456;10.850;2022-10-16T14:03:27;21.50;99.90
22192;DHT22;11261;52.456;10.850;2022-10-16T14:05:59;21.40;99.90
22192;DHT22;11261;52.456;10.850;2022-10-16T14:08:30;21.80;99.90
22192;DHT22;11261;52.456;10.850;2022-10-16T14:11:00;21.90;99.90
22192;DHT22;11261;52.456;10.850;2022-10-16T14:13:36;21.50;99.90
22192;DHT22;11261;52.456;10.850;2022-10-16T14:16:09;21.60;99.90
22192;DHT22;11261;52.456;10.850;2022-10-16T14:18:38;21.50;99.90
22192;DHT22;11261;52.456;10.850;2022-10-16T14:21:12;21.30;99.90
22192;DHT22;11261;52.456;10.850;2022-10-16T14:23:43;21.20;99.90
22192;DHT22;11261;52.456;10.850;2022-10-16T14:26:16;21.10;99.90
22192;DHT22;11261;52.456;10.850;2022-10-16T14:28:45;21.20;99.90
22192;DHT22;11261;52.456;10.850;2022-10-16T14:31:28;21.30;99.90
22192;DHT22;11261;52.456;10.850;2022-10-16T14:33:58;21.20;99.90
22192;DHT22;11261;52.456;10.850;2022-10-16T14:36:27;21.70;99.90
22192;DHT22;11261;52.456;10.850;2022-10-16T14:39:00;21.40;99.90
22192;DHT22;11261;52.456;10.850;2022-10-16T14:41:31;21.60;99.90
22192;DHT22;11261;52.456;10.850;2022-10-16T14:44:02;21.60;99.90
22192;DHT22;11261;52.456;10.850;2022-10-16T14:46:34;21.50;99.90
22192;DHT22;11261;52.456;10.850;2022-10-16T14:49:13;21.60;99.90
22192;DHT22;11261;52.456;10.850;2022-10-16T14:51:43;21.70;99.90
22192;DHT22;11261;52.456;10.850;2022-10-16T14:54:15;21.50;99.90
22192;DHT22;11261;52.456;10.850;2022-10-16T14:56:46;21.40;99.90
22192;DHT22;11261;52.456;10.850;2022-10-16T14:59:19;21.20;99.90
22192;DHT22;11261;52.456;10.850;2022-10-16T15:01:48;21.40;99.90
22192;DHT22;11261;52.456;10.850;2022-10-16T15:04:16;21.50;99.90
22192;DHT22;11261;52.456;10.850;2022-10-16T15:06:45;21.20;99.90
22192;DHT22;11261;52.456;10.850;2022-10-16T15:09:14;21.10;99.90
22192;DHT22;11261;52.456;10.850;2022-10-16T15:11:43;21.20;99.90
22192;DHT22;11261;52.456;10.850;2022-10-16T15:14:12;20.90;99.90
22192;DHT22;11261;52.456;10.850;2022-10-16T15:16:45;20.80;99.90
22192;DHT22;11261;52.456;10.850;2022-10-16T15:19:13;21.20;99.90
22192;DHT22;11261;52.456;10.850;2022-10-16T15:21:42;20.80;99.90
22192;DHT22;11261;52.456;10.850;2022-10-16T15:24:13;21.10;99.90
22192;DHT22;11261;52.456;10.850;2022-10-16T15:26:46;21.10;99.90
22192;DHT22;11261;52.456;10.850;2022-10-16T15:29:15;20.90;99.90
22192;DHT22;11261;52.456;10.850;2022-10-16T15:31:43;21.00;99.90
22192;DHT22;11261;52.456;10.850;2022-10-16T15:34:14;21.10;99.90
22192;DHT22;11261;52.456;10.850;2022-10-16T15:36:43;20.80;99.90
22192;DHT22;11261;52.456;10.850;2022-10-16T15:39:14;20.90;99.90
22192;DHT22;11261;52.456;10.850;2022-10-16T15:41:44;20.80;99.90
22192;DHT22;11261;52.456;10.850;2022-10-16T15:44:14;20.80;99.90
22192;DHT22;11261;52.456;10.850;2022-10-16T15:46:42;20.60;99.90